Time;durP1;ratioP1;P1;durP2;ratioP2;P2;SDS_P1;SDS_P2;PMS_P1;PMS_P2;Temp;Humidity;BMP_temperature;BMP_pressure;BME280_temperature;BME280_humidity;BME280_pressure;Samples;Min_cycle;Max_cycle;Signal;HPM_P1;HPM_P2
2022/01/14 00:02:02;;;;;;;6.80;2.87;;;7.20;1.00;;;;;;5071957;28;20507;-75
2022/01/14 00:04:27;;;;;;;12.87;3.03;;;7.20;1.00;;;;;;5081528;28;20420;-76
2022/01/14 00:06:53;;;;;;;5.80;2.73;;;7.20;1.00;;;;;;5093110;28;20457;-75
2022/01/14 00:09:19;;;;;;;4.30;2.63;;;7.30;1.00;;;;;;5067232;28;20185;-75
2022/01/14 00:11:54;;;;;;;7.70;3.10;;;7.30;1.00;;;;;;5072799;28;20650;-76
2022/01/14 00:16:48;;;;;;;6.37;2.70;;;7.20;1.00;;;;;;5072818;28;20411;-75
2022/01/14 00:19:15;;;;;;;7.50;2.97;;;7.10;1.00;;;;;;5071421;28;20431;-75
2022/01/14 00:21:42;;;;;;;12.60;3.50;;;7.10;1.00;;;;;;5076657;28;20459;-76
2022/01/14 00:32:32;;;;;;;5.60;2.33;;;7.00;1.00;;;;;;5085482;28;20422;-75
2022/01/14 00:34:57;;;;;;;6.40;2.60;;;7.00;1.00;;;;;;5076481;28;20407;-76
2022/01/14 00:37:23;;;;;;;26.60;4.30;;;7.00;1.00;;;;;;5086627;28;20455;-76
2022/01/14 00:39:49;;;;;;;5.93;2.97;;;7.00;1.00;;;;;;5095711;28;20173;-76
2022/01/14 00:42:14;;;;;;;6.70;2.83;;;7.00;1.00;;;;;;5095909;28;20173;-75
2022/01/14 00:44:41;;;;;;;10.60;2.40;;;7.00;1.00;;;;;;5096762;28;20150;-75
2022/01/14 00:47:07;;;;;;;6.10;2.73;;;7.00;1.00;;;;;;5088800;28;20239;-75
2022/01/14 00:49:32;;;;;;;3.00;2.40;;;7.10;1.00;;;;;;5057642;28;20924;-75
2022/01/14 00:51:58;;;;;;;5.93;2.33;;;7.00;1.00;;;;;;5063381;28;20489;-76
2022/01/14 00:54:26;;;;;;;7.47;3.10;;;7.00;1.00;;;;;;5095555;28;20182;-74
2022/01/14 00:59:33;;;;;;;11.23;3.23;;;7.00;1.00;;;;;;5075246;28;20479;-75
2022/01/14 01:02:00;;;;;;;9.20;3.57;;;7.10;1.00;;;;;;5062668;28;20917;-76
2022/01/14 01:04:34;;;;;;;5.47;3.10;;;7.00;1.00;;;;;;5096256;28;20493;-75
2022/01/14 01:07:02;;;;;;;9.33;2.77;;;7.00;1.00;;;;;;5092079;28;20424;-75
2022/01/14 01:09:30;;;;;;;5.17;2.70;;;7.00;1.00;;;;;;5074381;28;20459;-75
2022/01/14 01:12:16;;;;;;;7.17;3.37;;;7.00;1.00;;;;;;5077705;28;20470;-75
2022/01/14 01:14:50;;;;;;;10.37;3.13;;;7.00;1.00;;;;;;5077972;28;20427;-76
2022/01/14 01:17:17;;;;;;;10.00;2.87;;;7.00;1.00;;;;;;5087053;28;20451;-75
2022/01/14 01:19:42;;;;;;;10.70;3.47;;;7.00;1.00;;;;;;5074779;28;20401;-76
2022/01/14 01:22:09;;;;;;;9.57;2.43;;;7.00;1.00;;;;;;5081907;28;20477;-76
2022/01/14 01:24:35;;;;;;;8.93;3.40;;;7.00;1.00;;;;;;5096024;28;20444;-75
2022/01/14 01:27:07;;;;;;;6.10;3.30;;;7.00;1.00;;;;;;5072090;28;20459;-75
2022/01/14 01:32:02;;;;;;;2.30;2.07;;;7.10;1.00;;;;;;5082884;28;20456;-76
2022/01/14 01:34:29;;;;;;;10.53;3.67;;;7.00;1.00;;;;;;5095618;28;20752;-76
2022/01/14 01:36:57;;;;;;;7.60;2.80;;;7.10;1.00;;;;;;5088341;28;20498;-75
2022/01/14 01:39:28;;;;;;;10.60;4.13;;;7.10;1.00;;;;;;5074341;28;20408;-77
2022/01/14 01:41:59;;;;;;;7.50;2.67;;;7.10;1.00;;;;;;5081497;28;20939;-75
2022/01/14 01:44:26;;;;;;;3.30;2.10;;;7.10;1.00;;;;;;5095434;28;20456;-75
2022/01/14 01:46:53;;;;;;;5.17;2.13;;;7.10;1.00;;;;;;5089777;28;20474;-75
2022/01/14 01:49:22;;;;;;;10.97;2.80;;;7.00;1.00;;;;;;5072288;28;20425;-75
2022/01/14 01:51:49;;;;;;;7.33;2.37;;;7.00;1.00;;;;;;5078694;28;20940;-75
2022/01/14 01:54:15;;;;;;;11.37;3.50;;;7.00;1.00;;;;;;5095243;28;20934;-75
2022/01/14 01:56:41;;;;;;;7.73;2.77;;;7.00;1.00;;;;;;5074355;28;20432;-75
2022/01/14 01:59:09;;;;;;;9.70;2.80;;;7.00;1.00;;;;;;5074069;28;20401;-75
2022/01/14 02:01:38;;;;;;;6.83;3.73;;;7.00;1.00;;;;;;5075413;28;20431;-76
2022/01/14 02:04:04;;;;;;;3.07;2.40;;;7.00;1.00;;;;;;5077508;28;20403;-75
2022/01/14 02:06:30;;;;;;;5.20;3.47;;;7.00;1.00;;;;;;5094232;28;20814;-75
2022/01/14 02:08:56;;;;;;;9.83;2.87;;;7.00;1.00;;;;;;5073794;28;20216;-75
2022/01/14 02:11:21;;;;;;;12.40;2.60;;;7.00;1.00;;;;;;5062686;28;20443;-76
2022/01/14 02:13:49;;;;;;;12.23;4.47;;;7.00;1.00;;;;;;5094938;28;20178;-75
2022/01/14 02:16:58;;;;;;;10.63;3.43;;;7.00;1.00;;;;;;5093174;28;20173;-74
2022/01/14 02:19:24;;;;;;;4.73;2.77;;;7.00;1.00;;;;;;5084152;28;20411;-75
2022/01/14 02:22:13;;;;;;;6.10;2.80;;;7.00;1.00;;;;;;5094740;28;20500;-75
2022/01/14 02:27:08;;;;;;;5.07;3.23;;;7.00;1.00;;;;;;5074408;28;20401;-74
2022/01/14 02:29:34;;;;;;;10.53;2.97;;;7.00;1.00;;;;;;5083018;28;20781;-74
2022/01/14 02:32:00;;;;;;;9.33;2.33;;;7.00;1.00;;;;;;5094185;28;20965;-73
2022/01/14 02:34:26;;;;;;;8.70;3.03;;;7.00;1.00;;;;;;5086618;28;20455;-75
2022/01/14 02:36:52;;;;;;;4.77;2.80;;;7.10;1.00;;;;;;5073880;28;20400;-75
2022/01/14 02:39:19;;;;;;;4.43;1.70;;;7.10;1.00;;;;;;5061222;28;20435;-75
2022/01/14 02:41:47;;;;;;;5.93;2.33;;;7.00;1.00;;;;;;5093348;28;20416;-75
2022/01/14 02:44:18;;;;;;;6.70;2.43;;;7.10;1.00;;;;;;5091593;28;20408;-74
2022/01/14 02:46:53;;;;;;;6.57;2.23;;;7.10;1.00;;;;;;5094251;28;20955;-75
2022/01/14 02:49:20;;;;;;;5.50;2.37;;;7.00;1.00;;;;;;5088444;28;20461;-75
2022/01/14 02:51:46;;;;;;;5.03;2.50;;;7.00;1.00;;;;;;5073763;28;20420;-75
2022/01/14 02:54:15;;;;;;;5.83;3.10;;;7.10;1.00;;;;;;5076601;28;20420;-76
2022/01/14 02:56:47;;;;;;;2.70;2.50;;;7.10;1.00;;;;;;5094163;28;20162;-75
2022/01/14 02:59:18;;;;;;;2.80;2.43;;;7.00;1.00;;;;;;5089381;28;20412;-75
2022/01/14 03:01:45;;;;;;;4.40;2.90;;;7.00;1.00;;;;;;5073618;28;20412;-75
2022/01/14 03:04:15;;;;;;;7.33;3.43;;;7.00;1.00;;;;;;5074762;28;20432;-75
2022/01/14 03:06:41;;;;;;;8.77;3.10;;;7.00;1.00;;;;;;5075626;28;20953;-75
2022/01/14 03:09:07;;;;;;;7.77;2.43;;;7.00;1.00;;;;;;5092162;28;20423;-75
2022/01/14 03:11:55;;;;;;;3.37;2.70;;;7.00;1.00;;;;;;5055485;28;20575;-74
2022/01/14 03:14:25;;;;;;;5.47;2.80;;;7.00;1.00;;;;;;5074648;28;20623;-74
2022/01/14 03:16:53;;;;;;;3.03;2.60;;;7.00;1.00;;;;;;5093656;28;20406;-75
2022/01/14 03:19:23;;;;;;;3.00;2.70;;;7.10;1.00;;;;;;5091190;28;20399;-75
2022/01/14 03:21:51;;;;;;;7.03;3.30;;;7.00;1.00;;;;;;5055270;28;20485;-74
2022/01/14 03:24:21;;;;;;;8.43;2.40;;;7.00;1.00;;;;;;5073269;28;20404;-75
2022/01/14 03:26:49;;;;;;;7.63;3.47;;;7.00;1.00;;;;;;5073165;28;20794;-76
2022/01/14 03:29:16;;;;;;;7.10;2.40;;;7.00;1.00;;;;;;5072384;28;20470;-75
2022/01/14 03:31:43;;;;;;;20.23;3.13;;;7.00;1.00;;;;;;5073244;28;20440;-75
2022/01/14 03:34:08;;;;;;;4.93;2.70;;;7.00;1.00;;;;;;5071933;28;20419;-75
2022/01/14 03:36:34;;;;;;;2.70;2.50;;;7.00;1.00;;;;;;5090293;28;20412;-75
2022/01/14 03:39:00;;;;;;;6.90;2.03;;;7.00;1.00;;;;;;5091685;28;20225;-76
2022/01/14 03:41:26;;;;;;;5.50;1.93;;;7.00;1.00;;;;;;5077255;28;20209;-75
2022/01/14 03:43:51;;;;;;;5.63;2.60;;;6.90;1.00;;;;;;5055484;28;20889;-75
2022/01/14 03:46:17;;;;;;;4.03;2.40;;;6.90;1.00;;;;;;5090025;28;20177;-75
2022/01/14 03:48:43;;;;;;;7.23;2.80;;;7.00;1.00;;;;;;5074268;28;20259;-76
2022/01/14 03:51:08;;;;;;;5.93;2.53;;;7.00;1.00;;;;;;5077218;28;20217;-74
2022/01/14 03:53:34;;;;;;;4.50;2.37;;;7.00;1.00;;;;;;5072898;28;20221;-75
2022/01/14 03:56:00;;;;;;;16.97;3.40;;;7.00;1.00;;;;;;5085380;28;20622;-76
2022/01/14 03:58:25;;;;;;;12.07;4.57;;;7.10;1.00;;;;;;5085661;28;20186;-76
2022/01/14 04:00:51;;;;;;;3.67;2.30;;;7.10;1.00;;;;;;5072200;28;20186;-75
2022/01/14 04:03:17;;;;;;;5.10;3.70;;;7.10;1.00;;;;;;5077619;28;20530;-75
2022/01/14 04:05:42;;;;;;;4.73;2.63;;;7.10;1.00;;;;;;5093070;28;20580;-75
2022/01/14 04:08:08;;;;;;;9.20;3.10;;;7.10;1.00;;;;;;5089764;28;20655;-76
2022/01/14 04:10:34;;;;;;;3.90;2.47;;;7.10;1.00;;;;;;5053914;28;20327;-76
2022/01/14 04:15:40;;;;;;;4.23;3.10;;;7.00;1.00;;;;;;5092245;28;20403;-76
2022/01/14 04:18:13;;;;;;;12.87;2.53;;;7.00;1.00;;;;;;5072912;28;20198;-75
2022/01/14 04:20:39;;;;;;;18.87;3.60;;;7.00;1.00;;;;;;5053957;28;20503;-75
2022/01/14 04:23:06;;;;;;;18.10;3.73;;;7.00;1.00;;;;;;5091417;28;20749;-76
2022/01/14 04:25:33;;;;;;;8.00;3.07;;;7.00;1.00;;;;;;5092773;28;20391;-75
2022/01/14 04:27:59;;;;;;;7.30;3.47;;;7.00;1.00;;;;;;5057464;28;20413;-75
2022/01/14 04:30:25;;;;;;;7.60;2.90;;;7.00;1.00;;;;;;5053755;28;20941;-75
2022/01/14 04:32:51;;;;;;;4.30;2.97;;;7.00;1.00;;;;;;5087687;28;20453;-75
2022/01/14 04:35:17;;;;;;;4.70;2.97;;;6.90;1.00;;;;;;5092036;28;20256;-75
2022/01/14 04:37:43;;;;;;;6.67;3.50;;;6.90;1.00;;;;;;5078474;28;20531;-75
2022/01/14 04:40:09;;;;;;;5.47;2.50;;;6.90;1.00;;;;;;5071522;28;20425;-75
2022/01/14 04:42:37;;;;;;;5.10;3.03;;;6.90;1.00;;;;;;5084490;28;20176;-75
2022/01/14 04:45:04;;;;;;;2.97;2.60;;;6.90;1.00;;;;;;5092756;28;20399;-75
2022/01/14 04:47:44;;;;;;;2.50;2.30;;;6.90;1.00;;;;;;5081774;28;20447;-76
2022/01/14 04:50:11;;;;;;;4.13;1.93;;;6.80;1.00;;;;;;5071391;28;20916;-76
2022/01/14 04:52:36;;;;;;;5.13;2.90;;;6.90;1.00;;;;;;5082142;28;20411;-76
2022/01/14 04:55:02;;;;;;;7.60;2.50;;;6.80;1.00;;;;;;5092564;28;20410;-75
2022/01/14 04:57:28;;;;;;;2.77;2.00;;;6.80;1.00;;;;;;5083319;28;20198;-76
2022/01/14 04:59:53;;;;;;;7.53;3.40;;;6.80;1.00;;;;;;5071249;28;20408;-75
2022/01/14 05:02:19;;;;;;;4.47;2.60;;;6.80;1.00;;;;;;5082969;28;20197;-75
2022/01/14 05:04:46;;;;;;;5.60;2.83;;;6.80;1.00;;;;;;5092532;28;20169;-75
2022/01/14 05:07:22;;;;;;;4.17;2.23;;;6.80;1.00;;;;;;5066061;28;20661;-75
2022/01/14 05:09:57;;;;;;;12.53;2.90;;;6.70;1.00;;;;;;5074966;28;20404;-76
2022/01/14 05:12:23;;;;;;;6.50;3.40;;;6.80;1.00;;;;;;5084619;28;20958;-76
2022/01/14 05:14:48;;;;;;;5.90;2.77;;;6.80;1.00;;;;;;5094170;28;20428;-76
2022/01/14 05:17:14;;;;;;;8.47;2.60;;;6.80;1.00;;;;;;5075717;28;20444;-76
2022/01/14 05:19:40;;;;;;;4.53;3.13;;;6.80;1.00;;;;;;5074671;28;20169;-76
2022/01/14 05:22:05;;;;;;;4.20;2.10;;;6.80;1.00;;;;;;5076926;28;20197;-76
2022/01/14 05:24:31;;;;;;;4.27;3.63;;;6.80;1.00;;;;;;5096051;28;20256;-77
2022/01/14 05:26:57;;;;;;;7.50;3.20;;;6.70;1.00;;;;;;5077870;28;20176;-75
2022/01/14 05:29:22;;;;;;;4.80;2.73;;;6.80;1.00;;;;;;5074554;28;20169;-77
2022/01/14 05:31:51;;;;;;;5.90;2.30;;;6.70;1.00;;;;;;5090473;28;20194;-77
2022/01/14 05:34:17;;;;;;;4.30;2.73;;;6.70;1.00;;;;;;5095465;28;20162;-77
2022/01/14 05:36:43;;;;;;;7.13;3.20;;;6.70;1.00;;;;;;5080798;28;20422;-77
2022/01/14 05:39:10;;;;;;;6.07;3.03;;;6.70;1.00;;;;;;5075656;28;20478;-76
2022/01/14 05:41:36;;;;;;;13.27;2.73;;;6.70;1.00;;;;;;5087819;28;20545;-76
2022/01/14 05:44:03;;;;;;;4.57;3.20;;;6.70;1.00;;;;;;5077518;28;20472;-76
2022/01/14 05:46:29;;;;;;;7.50;4.13;;;6.70;1.00;;;;;;5084131;28;20452;-76
2022/01/14 05:48:55;;;;;;;3.20;2.60;;;6.70;1.00;;;;;;5073293;28;20909;-76
2022/01/14 05:51:20;;;;;;;7.73;2.63;;;6.70;1.00;;;;;;5084215;28;20189;-78
2022/01/14 05:53:46;;;;;;;4.80;3.03;;;6.80;1.00;;;;;;5095384;28;20268;-78
2022/01/14 05:56:11;;;;;;;9.00;2.90;;;6.80;1.00;;;;;;5069609;28;20170;-77
2022/01/14 05:58:37;;;;;;;6.70;2.80;;;6.80;1.00;;;;;;5074172;28;20248;-78
2022/01/14 06:01:03;;;;;;;2.93;2.50;;;6.80;1.00;;;;;;5061983;28;20215;-76
2022/01/14 06:03:29;;;;;;;4.53;2.70;;;6.80;1.00;;;;;;5095234;28;20173;-76
2022/01/14 06:05:54;;;;;;;12.50;3.40;;;6.90;1.00;;;;;;5091292;28;20505;-76
2022/01/14 06:08:20;;;;;;;9.33;3.07;;;6.90;1.00;;;;;;5074313;28;20205;-77
2022/01/14 06:10:46;;;;;;;8.10;3.17;;;6.90;1.00;;;;;;5066327;28;20203;-76
2022/01/14 06:13:11;;;;;;;3.27;2.97;;;6.90;1.00;;;;;;5095100;28;20172;-77
2022/01/14 06:15:37;;;;;;;5.90;2.70;;;6.90;1.00;;;;;;5067918;28;20220;-76
2022/01/14 06:18:02;;;;;;;9.77;3.50;;;6.90;1.00;;;;;;5074496;28;20311;-77
2022/01/14 06:20:28;;;;;;;6.93;2.83;;;6.90;1.00;;;;;;5058016;28;20197;-76
2022/01/14 06:22:54;;;;;;;9.20;3.27;;;6.80;1.00;;;;;;5094730;28;20183;-77
2022/01/14 06:25:20;;;;;;;6.70;3.43;;;6.90;1.00;;;;;;5075913;28;20765;-77
2022/01/14 06:27:45;;;;;;;10.50;3.87;;;6.80;1.00;;;;;;5094003;28;20268;-75
2022/01/14 06:30:12;;;;;;;4.40;3.10;;;6.90;1.00;;;;;;5075528;28;20506;-76
2022/01/14 06:32:41;;;;;;;7.63;3.03;;;6.90;1.00;;;;;;5092398;28;20231;-75
2022/01/14 06:35:13;;;;;;;11.57;3.50;;;7.00;1.00;;;;;;5074309;28;20788;-75
2022/01/14 06:37:39;;;;;;;4.70;2.83;;;7.00;1.00;;;;;;5075146;28;20466;-75
2022/01/14 06:40:06;;;;;;;5.07;2.53;;;7.00;1.00;;;;;;5075281;28;20424;-76
2022/01/14 06:42:32;;;;;;;5.50;3.07;;;6.90;1.00;;;;;;5075716;28;20415;-81
2022/01/14 06:44:58;;;;;;;8.00;2.83;;;7.00;1.00;;;;;;5088758;28;20405;-82
2022/01/14 06:47:24;;;;;;;8.30;3.10;;;7.10;1.00;;;;;;5073961;28;20889;-76
2022/01/14 06:49:49;;;;;;;9.53;3.40;;;7.10;1.00;;;;;;5072752;28;20173;-76
2022/01/14 06:52:15;;;;;;;15.33;3.47;;;7.00;1.00;;;;;;5094089;28;20810;-76
2022/01/14 06:54:41;;;;;;;15.93;4.13;;;7.10;1.00;;;;;;5077692;28;20508;-76
2022/01/14 06:57:07;;;;;;;13.00;3.57;;;7.10;1.00;;;;;;5066797;28;20276;-75
2022/01/14 06:59:32;;;;;;;6.40;2.90;;;7.10;1.00;;;;;;5093103;28;20219;-76
2022/01/14 07:02:00;;;;;;;4.97;3.00;;;7.10;1.00;;;;;;5083271;28;20240;-76
2022/01/14 07:04:25;;;;;;;8.13;3.10;;;7.10;1.00;;;;;;5073733;28;20417;-76
2022/01/14 07:06:51;;;;;;;8.87;2.70;;;7.00;1.00;;;;;;5081231;28;20415;-76
2022/01/14 07:09:17;;;;;;;6.40;3.47;;;7.10;1.00;;;;;;5092807;28;20649;-75
2022/01/14 07:11:47;;;;;;;11.53;2.30;;;7.00;1.00;;;;;;5087051;28;20279;-76
2022/01/14 07:14:12;;;;;;;6.17;3.47;;;7.10;1.00;;;;;;5073502;28;20182;-76
2022/01/14 07:16:38;;;;;;;12.93;3.30;;;7.20;1.00;;;;;;5078196;28;20443;-76
2022/01/14 07:19:04;;;;;;;3.90;2.60;;;7.20;1.00;;;;;;5092656;28;20942;-76
2022/01/14 07:21:33;;;;;;;6.73;3.50;;;7.10;1.00;;;;;;5089224;28;20265;-77
2022/01/14 07:23:58;;;;;;;11.40;3.30;;;7.10;1.00;;;;;;5073568;28;20703;-78
2022/01/14 07:26:24;;;;;;;5.73;2.60;;;7.10;1.00;;;;;;5074434;28;20440;-78
2022/01/14 07:28:50;;;;;;;14.47;3.93;;;7.20;1.00;;;;;;5072008;28;20180;-76
2022/01/14 07:31:15;;;;;;;13.47;3.13;;;7.10;1.00;;;;;;5086513;28;20208;-76
2022/01/14 07:33:41;;;;;;;8.40;3.23;;;7.10;1.00;;;;;;5093470;28;20173;-75
2022/01/14 07:36:06;;;;;;;6.40;2.83;;;7.10;1.00;;;;;;5081031;28;20202;-78
2022/01/14 07:38:32;;;;;;;16.13;3.23;;;7.10;1.00;;;;;;5071805;28;20200;-76
2022/01/14 07:40:58;;;;;;;3.93;2.03;;;7.20;1.00;;;;;;5068026;28;20278;-77
2022/01/14 07:43:23;;;;;;;9.83;3.00;;;7.10;1.00;;;;;;5093282;28;20555;-77
2022/01/14 07:45:49;;;;;;;9.73;2.93;;;7.10;1.00;;;;;;5068974;28;20725;-76
2022/01/14 07:48:15;;;;;;;9.30;3.17;;;7.10;1.00;;;;;;5077426;28;20543;-76
2022/01/14 07:50:41;;;;;;;5.40;3.03;;;7.10;1.00;;;;;;5054503;28;20193;-76
2022/01/14 07:53:06;;;;;;;6.70;2.90;;;7.20;1.00;;;;;;5072908;28;20836;-76
2022/01/14 07:55:32;;;;;;;7.77;3.33;;;7.20;1.00;;;;;;5054885;28;20261;-77
2022/01/14 07:57:58;;;;;;;8.30;3.30;;;7.20;1.00;;;;;;5072208;28;20202;-77
2022/01/14 08:00:23;;;;;;;7.30;3.07;;;7.20;1.00;;;;;;5054291;28;20731;-77
2022/01/14 08:02:49;;;;;;;15.33;3.00;;;7.20;1.00;;;;;;5072982;28;20166;-77
2022/01/14 08:05:16;;;;;;;6.80;2.33;;;7.20;1.00;;;;;;5072921;28;20634;-76
2022/01/14 08:07:46;;;;;;;3.67;2.07;;;7.10;1.00;;;;;;5072842;28;20176;-77
2022/01/14 08:10:14;;;;;;;8.80;3.40;;;7.20;1.00;;;;;;5071904;28;20428;-77
2022/01/14 08:12:41;;;;;;;2.73;2.53;;;7.20;1.00;;;;;;5073002;28;20389;-77
2022/01/14 08:15:08;;;;;;;11.43;3.07;;;7.20;1.00;;;;;;5072818;28;20408;-76
2022/01/14 08:17:34;;;;;;;4.30;2.50;;;7.10;1.00;;;;;;5071670;28;20460;-77
2022/01/14 08:19:59;;;;;;;8.43;4.13;;;7.10;1.00;;;;;;5071820;28;20485;-76
2022/01/14 08:22:25;;;;;;;6.70;2.70;;;7.20;1.00;;;;;;5072731;28;20698;-75
2022/01/14 08:24:51;;;;;;;7.13;3.20;;;7.20;1.00;;;;;;5066394;28;20649;-77
2022/01/14 08:27:16;;;;;;;4.50;2.60;;;7.10;1.00;;;;;;5072824;28;20304;-75
2022/01/14 08:29:42;;;;;;;11.17;2.80;;;7.20;1.00;;;;;;5071714;28;20253;-76
2022/01/14 08:32:08;;;;;;;9.90;2.77;;;7.20;1.00;;;;;;5054621;28;20171;-78
2022/01/14 08:34:33;;;;;;;5.20;2.50;;;7.30;1.00;;;;;;5072216;28;20170;-76
2022/01/14 08:36:59;;;;;;;7.13;3.10;;;7.20;1.00;;;;;;5072239;28;20167;-76
2022/01/14 08:39:25;;;;;;;9.50;3.07;;;7.20;1.00;;;;;;5071646;28;20179;-76
2022/01/14 08:41:51;;;;;;;5.43;2.20;;;7.30;1.00;;;;;;5073597;28;20181;-76
2022/01/14 08:44:17;;;;;;;7.77;2.53;;;7.20;1.00;;;;;;5076336;28;20167;-77
2022/01/14 08:46:42;;;;;;;5.97;3.40;;;7.20;1.00;;;;;;5058340;28;20917;-77
2022/01/14 08:49:09;;;;;;;12.70;3.80;;;7.30;1.00;;;;;;5075534;28;20404;-77
2022/01/14 08:51:36;;;;;;;7.33;2.93;;;7.30;1.00;;;;;;5057358;28;20198;-77
2022/01/14 08:54:03;;;;;;;4.97;2.60;;;7.40;1.00;;;;;;5076201;28;20420;-76
2022/01/14 08:56:31;;;;;;;5.17;2.33;;;7.40;1.00;;;;;;5077109;28;20408;-77
2022/01/14 08:58:57;;;;;;;11.03;2.70;;;7.40;1.00;;;;;;5075169;28;20517;-76
2022/01/14 09:01:23;;;;;;;7.43;3.30;;;7.30;1.00;;;;;;5082003;28;20423;-77
2022/01/14 09:03:49;;;;;;;7.03;3.17;;;7.40;1.00;;;;;;5096149;28;20193;-76
2022/01/14 09:06:14;;;;;;;3.90;2.70;;;7.40;1.00;;;;;;5091576;28;20178;-77
2022/01/14 09:08:40;;;;;;;7.90;2.50;;;7.30;1.00;;;;;;5074924;28;20193;-75
2022/01/14 09:11:07;;;;;;;9.47;3.00;;;7.40;1.00;;;;;;5076914;28;20201;-77
2022/01/14 09:13:34;;;;;;;13.50;3.00;;;7.50;6.70;;;;;;5095747;28;20162;-76
2022/01/14 09:15:59;;;;;;;4.57;2.50;;;7.50;6.70;;;;;;5093623;28;20939;-76
2022/01/14 09:18:26;;;;;;;3.93;2.87;;;7.50;6.70;;;;;;5077629;28;20486;-76
2022/01/14 09:20:51;;;;;;;18.80;3.33;;;7.60;6.80;;;;;;5094576;28;20189;-76
2022/01/14 09:23:24;;;;;;;9.10;2.67;;;7.70;12.90;;;;;;5083637;28;20462;-76
2022/01/14 09:25:51;;;;;;;8.50;2.53;;;7.70;12.90;;;;;;5075193;28;20170;-76
2022/01/14 09:28:17;;;;;;;3.43;2.53;;;7.70;9.50;;;;;;5075761;28;20482;-75
2022/01/14 09:30:43;;;;;;;8.13;3.37;;;7.70;9.90;;;;;;5073989;28;20895;-78
2022/01/14 09:33:09;;;;;;;8.30;3.37;;;7.80;11.10;;;;;;5095677;28;20459;-77
2022/01/14 09:35:34;;;;;;;8.40;2.77;;;7.80;11.20;;;;;;5095587;28;20458;-76
2022/01/14 09:38:00;;;;;;;3.20;2.50;;;7.90;11.50;;;;;;5094951;28;20239;-75
2022/01/14 09:40:27;;;;;;;8.73;3.53;;;7.90;8.80;;;;;;5076462;28;20596;-75
2022/01/14 09:42:59;;;;;;;6.93;2.83;;;7.90;7.00;;;;;;5076959;28;20631;-75
2022/01/14 09:45:26;;;;;;;3.87;3.67;;;7.90;5.50;;;;;;5075207;28;20970;-76
2022/01/14 09:47:51;;;;;;;9.67;3.40;;;7.90;4.70;;;;;;5073435;28;20453;-75
2022/01/14 09:50:22;;;;;;;9.17;3.10;;;8.00;5.80;;;;;;5093872;28;20898;-74
2022/01/14 09:52:50;;;;;;;2.97;2.20;;;8.00;3.70;;;;;;5075330;28;20177;-77
2022/01/14 09:55:16;;;;;;;7.53;2.93;;;8.00;1.00;;;;;;5095374;28;20511;-76
2022/01/14 09:57:42;;;;;;;11.40;3.67;;;7.90;1.00;;;;;;5075947;28;20463;-76
2022/01/14 10:00:09;;;;;;;8.83;3.10;;;8.10;1.00;;;;;;5073993;28;20420;-76
2022/01/14 10:02:40;;;;;;;2.50;2.37;;;8.00;1.40;;;;;;5091884;28;20423;-76
2022/01/14 10:05:10;;;;;;;4.00;2.90;;;8.00;1.00;;;;;;5076854;28;20413;-75
2022/01/14 10:07:36;;;;;;;8.40;2.40;;;8.00;1.00;;;;;;5077584;28;20445;-76
2022/01/14 10:10:22;;;;;;;8.47;2.17;;;8.10;1.00;;;;;;5058777;28;20440;-75
2022/01/14 10:12:48;;;;;;;1.67;1.53;;;8.00;1.00;;;;;;5068155;28;20939;-75
2022/01/14 10:15:13;;;;;;;6.17;2.50;;;8.00;1.00;;;;;;5074439;28;20423;-75
2022/01/14 10:17:42;;;;;;;2.53;2.10;;;8.00;1.00;;;;;;5074639;28;20206;-76
2022/01/14 10:20:14;;;;;;;3.57;1.93;;;8.00;1.00;;;;;;5073737;28;20269;-76
2022/01/14 10:22:43;;;;;;;8.33;2.30;;;8.10;1.00;;;;;;5081812;28;20518;-74
2022/01/14 10:25:11;;;;;;;9.00;2.90;;;8.20;1.00;;;;;;5093998;28;20462;-77
2022/01/14 10:27:49;;;;;;;2.40;2.20;;;8.20;1.00;;;;;;5069713;28;20428;-75
2022/01/14 10:30:31;;;;;;;3.00;1.80;;;8.20;1.00;;;;;;5066904;28;20458;-76
2022/01/14 10:32:58;;;;;;;2.07;1.97;;;8.20;1.00;;;;;;5066955;28;20428;-76
2022/01/14 10:35:27;;;;;;;4.00;2.37;;;8.20;1.00;;;;;;5074048;28;20403;-76
2022/01/14 10:37:56;;;;;;;6.57;2.80;;;8.30;1.10;;;;;;5063954;28;20946;-76
2022/01/14 10:40:24;;;;;;;2.80;1.87;;;8.30;1.00;;;;;;5075213;28;20448;-78
2022/01/14 10:42:58;;;;;;;2.20;2.00;;;8.30;1.00;;;;;;5074373;28;20907;-74
2022/01/14 10:45:27;;;;;;;5.97;2.60;;;8.40;1.10;;;;;;5076102;28;20414;-74
2022/01/14 10:48:06;;;;;;;3.33;2.50;;;8.40;1.10;;;;;;5066739;28;20785;-74
2022/01/14 10:50:36;;;;;;;2.00;1.90;;;8.40;1.10;;;;;;5055015;28;20436;-75
2022/01/14 10:53:29;;;;;;;2.10;1.90;;;8.40;1.10;;;;;;5073970;28;20957;-75
2022/01/14 10:56:18;;;;;;;1.90;1.80;;;8.40;1.10;;;;;;5073556;28;20762;-74
2022/01/14 10:58:46;;;;;;;3.00;2.30;;;8.40;1.00;;;;;;5087574;28;20455;-74
2022/01/14 11:01:21;;;;;;;3.83;2.50;;;8.40;1.00;;;;;;5093876;28;20509;-73
2022/01/14 11:03:51;;;;;;;7.17;2.40;;;8.40;1.00;;;;;;5077713;28;20796;-76
2022/01/14 11:06:23;;;;;;;2.30;2.00;;;8.40;1.00;;;;;;5073535;28;20486;-75
2022/01/14 11:08:58;;;;;;;3.93;2.03;;;8.40;1.00;;;;;;5087192;28;20441;-72
2022/01/14 11:11:25;;;;;;;1.93;1.83;;;8.40;1.00;;;;;;5075636;28;20438;-74
2022/01/14 11:13:52;;;;;;;3.63;2.40;;;8.40;1.00;;;;;;5075272;28;20431;-74
2022/01/14 11:16:17;;;;;;;3.63;2.30;;;8.50;1.20;;;;;;5073358;28;20488;-73
2022/01/14 11:18:46;;;;;;;3.27;1.83;;;8.60;1.30;;;;;;5070632;28;20499;-75
2022/01/14 11:23:56;;;;;;;2.10;2.00;;;8.60;1.00;;;;;;5075218;28;20449;-75
2022/01/14 11:26:24;;;;;;;2.30;2.17;;;8.60;1.00;;;;;;5073325;28;20395;-76
2022/01/14 11:28:50;;;;;;;3.73;2.20;;;8.60;1.00;;;;;;5057594;28;20765;-75
2022/01/14 11:31:39;;;;;;;2.70;1.50;;;8.60;1.00;;;;;;5073074;28;20429;-76
2022/01/14 11:34:31;;;;;;;2.30;2.20;;;8.60;1.00;;;;;;5071940;28;20250;-74
2022/01/14 11:37:02;;;;;;;2.13;1.93;;;8.60;1.00;;;;;;5044595;28;20952;-74
2022/01/14 11:39:36;;;;;;;3.33;1.83;;;8.60;1.00;;;;;;5092550;28;20400;-75
2022/01/14 11:42:05;;;;;;;3.90;2.07;;;8.60;1.00;;;;;;5089367;28;20483;-76
2022/01/14 11:44:44;;;;;;;6.77;2.00;;;8.70;1.00;;;;;;5072753;28;20490;-76
2022/01/14 11:47:39;;;;;;;2.40;1.90;;;8.70;1.00;;;;;;5058828;28;20482;-74
2022/01/14 11:50:26;;;;;;;3.20;1.90;;;8.80;1.00;;;;;;5080788;28;20776;-74
2022/01/14 11:52:52;;;;;;;1.70;1.60;;;8.80;1.00;;;;;;5083551;28;20414;-75
2022/01/14 11:55:23;;;;;;;4.63;3.27;;;8.80;1.00;;;;;;5072887;28;20392;-76
2022/01/14 11:57:53;;;;;;;2.50;1.80;;;8.80;1.00;;;;;;5080997;28;20195;-74
2022/01/14 12:00:41;;;;;;;2.07;1.97;;;8.80;1.00;;;;;;5091856;28;20516;-74
2022/01/14 12:03:06;;;;;;;3.37;1.67;;;8.80;1.00;;;;;;5082463;28;20420;-76
2022/01/14 12:05:33;;;;;;;3.10;1.97;;;8.70;1.00;;;;;;5055210;28;20401;-76
2022/01/14 12:08:02;;;;;;;1.47;1.37;;;8.70;1.00;;;;;;5073895;28;20588;-76
2022/01/14 12:10:36;;;;;;;2.50;1.60;;;8.70;1.00;;;;;;5071881;28;20805;-74
2022/01/14 12:13:49;;;;;;;1.87;1.60;;;8.70;1.00;;;;;;5081376;28;20449;-77
2022/01/14 12:18:58;;;;;;;1.40;1.30;;;8.70;1.00;;;;;;5079327;28;20461;-76
2022/01/14 12:21:42;;;;;;;1.77;1.27;;;8.80;1.00;;;;;;5076679;28;20433;-76
2022/01/14 12:24:19;;;;;;;3.97;1.63;;;8.90;1.00;;;;;;5093609;28;20223;-74
2022/01/14 12:27:03;;;;;;;1.50;1.40;;;8.90;1.00;;;;;;5096758;28;20374;-76
2022/01/14 12:29:36;;;;;;;6.77;1.60;;;8.80;1.00;;;;;;5057818;28;20415;-75
2022/01/14 12:32:10;;;;;;;2.20;1.80;;;8.80;1.00;;;;;;5078499;28;21142;-76
2022/01/14 12:35:00;;;;;;;1.20;1.10;;;8.80;1.00;;;;;;5096916;28;20414;-76
2022/01/14 12:37:32;;;;;;;4.30;1.80;;;8.70;1.00;;;;;;5063119;28;20680;-75
2022/01/14 12:40:06;;;;;;;11.37;2.37;;;8.60;1.00;;;;;;5075467;28;20789;-76
2022/01/14 12:42:31;;;;;;;1.77;1.67;;;8.60;1.00;;;;;;5066630;28;20513;-74
2022/01/14 12:44:58;;;;;;;7.20;1.90;;;8.80;1.00;;;;;;5078531;28;20545;-76
2022/01/14 12:47:27;;;;;;;1.57;1.33;;;8.90;1.00;;;;;;5088913;28;20611;-77
2022/01/14 12:49:53;;;;;;;3.53;1.30;;;9.10;1.00;;;;;;5057426;28;20415;-74
2022/01/14 12:52:37;;;;;;;4.70;1.23;;;9.20;1.00;;;;;;5082026;28;21009;-75
2022/01/14 12:55:07;;;;;;;12.40;2.90;;;9.10;1.00;;;;;;5095956;28;20401;-75
2022/01/14 12:57:33;;;;;;;7.67;1.90;;;9.00;1.00;;;;;;5088657;28;20451;-75
2022/01/14 12:59:59;;;;;;;2.43;1.67;;;8.90;1.00;;;;;;5057148;28;20430;-75
2022/01/14 13:02:29;;;;;;;2.80;1.93;;;8.90;1.00;;;;;;5063620;28;20416;-77
2022/01/14 13:05:06;;;;;;;2.57;2.10;;;8.70;1.00;;;;;;5096545;28;20163;-75
2022/01/14 13:07:34;;;;;;;7.13;2.17;;;8.70;1.00;;;;;;5089798;28;20429;-78
2022/01/14 13:10:01;;;;;;;7.90;2.80;;;8.60;1.00;;;;;;5074949;28;20824;-75
2022/01/14 13:12:32;;;;;;;14.10;2.20;;;8.70;1.00;;;;;;5080328;28;20443;-76
2022/01/14 13:15:04;;;;;;;3.63;2.10;;;8.70;1.00;;;;;;5095886;28;20398;-76
2022/01/14 13:17:34;;;;;;;4.87;2.20;;;8.70;1.00;;;;;;5090928;28;20507;-76
2022/01/14 13:20:06;;;;;;;7.77;2.73;;;8.90;1.00;;;;;;5056928;28;20470;-75
2022/01/14 13:22:33;;;;;;;4.67;2.00;;;9.00;1.00;;;;;;5080037;28;20502;-76
2022/01/14 13:25:05;;;;;;;8.17;2.60;;;8.90;1.00;;;;;;5095975;28;20419;-76
2022/01/14 13:27:33;;;;;;;5.53;2.10;;;8.90;1.00;;;;;;5090879;28;20507;-75
2022/01/14 13:30:11;;;;;;;10.37;2.80;;;8.90;1.00;;;;;;5074408;28;20434;-77
2022/01/14 13:32:37;;;;;;;6.80;3.03;;;8.90;1.00;;;;;;5060759;28;20450;-75
2022/01/14 13:35:14;;;;;;;6.83;2.07;;;8.80;1.00;;;;;;5095687;28;20760;-76
2022/01/14 13:37:42;;;;;;;12.73;2.77;;;8.70;1.00;;;;;;5091433;28;20562;-77
2022/01/14 13:40:13;;;;;;;17.20;2.30;;;8.60;1.00;;;;;;5075512;28;20462;-75